createdAt,value
2018-02-08T00:09:37.239Z,42.17
2018-02-08T00:19:38.781Z,39.40
2018-02-08T00:29:41.054Z,42.67
2018-02-08T00:39:42.570Z,42.30
2018-02-08T00:49:44.282Z,41.57
2018-02-08T00:59:45.790Z,43.60
2018-02-08T01:09:48.163Z,45.83
2018-02-08T01:19:49.704Z,43.10
2018-02-08T01:29:51.244Z,41.00
2018-02-08T01:39:52.769Z,41.70
2018-02-08T01:49:54.383Z,42.90
2018-02-08T01:59:56.013Z,39.83
2018-02-08T02:09:58.367Z,40.73
2018-02-08T02:19:59.972Z,42.73
2018-02-08T02:30:01.486Z,42.77
2018-02-08T02:40:03.035Z,43.13
2018-02-08T02:50:04.571Z,44.27
2018-02-08T03:00:06.098Z,42.60
2018-02-08T03:10:07.692Z,42.87
2018-02-08T03:20:09.221Z,43.83
2018-02-08T03:30:11.503Z,43.30
2018-02-08T03:40:13.021Z,41.37
2018-02-08T03:50:14.519Z,43.03
2018-02-08T04:00:16.036Z,44.30
2018-02-08T04:10:18.278Z,40.37
2018-02-08T04:20:19.881Z,45.93
2018-02-08T04:30:21.411Z,45.63
2018-02-08T04:40:41.544Z,45.83
2018-02-08T04:50:43.260Z,46.90
2018-02-08T05:00:44.790Z,42.90
2018-02-08T05:10:46.347Z,45.27
2018-02-08T05:20:47.908Z,48.03
2018-02-08T05:30:49.461Z,44.33
2018-02-08T05:40:51.107Z,46.70
2018-02-08T05:50:52.621Z,43.40
2018-02-08T06:00:54.150Z,42.73
2018-02-08T06:10:56.120Z,47.57
2018-02-08T06:20:57.663Z,46.37
2018-02-08T06:30:59.365Z,46.20
2018-02-08T06:41:01.035Z,44.93
2018-02-08T06:51:02.549Z,51.00
2018-02-08T07:01:04.066Z,51.00
2018-02-08T07:11:05.630Z,47.90
2018-02-08T07:21:07.218Z,51.00
2018-02-08T07:31:08.804Z,50.50
2018-02-08T07:41:10.341Z,48.93
2018-02-08T07:51:11.901Z,49.50
2018-02-08T08:01:13.449Z,45.30
2018-02-08T08:11:15.006Z,45.60
2018-02-08T08:21:16.651Z,47.87
2018-02-08T08:31:18.200Z,43.93
2018-02-08T08:41:19.720Z,45.90
2018-02-08T08:51:21.296Z,49.43
2018-02-08T09:01:23.015Z,52.57
2018-02-08T09:11:24.573Z,49.00
2018-02-08T09:21:26.877Z,51.53
2018-02-08T09:31:28.489Z,45.03
2018-02-08T09:41:30.844Z,51.47
2018-02-08T09:51:32.405Z,51.43
2018-02-08T10:01:34.677Z,50.80
2018-02-08T10:11:36.190Z,45.37
2018-02-08T10:21:37.722Z,46.67
2018-02-08T10:31:40.117Z,47.67
2018-02-08T10:41:41.716Z,46.07
2018-02-08T10:51:43.262Z,49.23
2018-02-08T11:01:44.795Z,48.07
2018-02-08T11:11:46.312Z,50.57
2018-02-08T11:21:47.867Z,46.30
2018-02-08T11:31:49.407Z,47.00
2018-02-08T11:41:57.975Z,49.90
2018-02-08T11:51:59.611Z,43.50
2018-02-08T12:02:02.023Z,47.27
2018-02-08T12:12:04.275Z,51.17
2018-02-08T12:22:06.008Z,46.33
2018-02-08T12:32:07.759Z,46.10
2018-02-08T12:42:09.400Z,48.00
2018-02-08T12:52:10.944Z,47.90
2018-02-08T13:02:13.220Z,49.50
2018-02-08T13:12:14.769Z,51.10
2018-02-08T13:22:16.342Z,45.93
2018-02-08T13:32:17.924Z,45.90
2018-02-08T13:42:19.508Z,49.30
2018-02-08T14:13:12.768Z,52.60
2018-02-08T14:23:14.308Z,47.13
2018-02-08T14:33:15.961Z,47.80
2018-02-08T14:43:17.524Z,46.60
2018-02-08T14:53:19.111Z,48.43
2018-02-08T15:03:20.641Z,44.10
2018-02-08T15:13:22.206Z,50.27
2018-02-08T15:23:23.969Z,46.10
2018-02-08T15:33:25.500Z,49.40
2018-02-08T15:43:27.885Z,49.97
2018-02-08T15:53:30.759Z,51.50
2018-02-08T16:03:35.389Z,54.37
2018-02-08T16:13:37.179Z,52.90
2018-02-08T16:23:39.529Z,49.30
2018-02-08T16:33:41.852Z,54.70
2018-02-08T16:43:44.137Z,52.17
2018-02-08T16:53:45.717Z,51.73
2018-02-08T17:03:47.280Z,55.67
2018-02-08T17:13:48.818Z,51.00
2018-02-08T17:23:50.358Z,50.87
2018-02-08T17:33:51.915Z,49.17
2018-02-08T17:43:53.516Z,49.73
2018-02-08T17:53:55.210Z,53.83
2018-02-08T18:03:56.743Z,50.37
2018-02-08T18:13:58.324Z,51.47
2018-02-08T18:23:59.793Z,53.00
2018-02-08T18:34:01.510Z,53.30
2018-02-08T18:44:03.076Z,51.33
2018-02-08T18:54:05.384Z,53.57
2018-02-08T19:04:06.964Z,54.90
2018-02-08T19:14:09.424Z,50.27
2018-02-08T19:24:11.420Z,50.00
2018-02-08T19:34:13.713Z,54.97
2018-02-08T19:44:15.376Z,52.07
2018-02-08T19:54:16.987Z,50.17
2018-02-08T20:04:18.674Z,52.30
2018-02-08T20:14:26.491Z,51.00
2018-02-08T20:24:28.766Z,51.67
2018-02-08T20:34:30.389Z,51.80
2018-02-08T20:44:31.952Z,53.40
2018-02-08T20:54:33.566Z,51.43
2018-02-08T21:04:35.150Z,52.50
2018-02-08T21:14:36.729Z,51.93
2018-02-08T21:24:38.262Z,52.77
2018-02-08T21:34:39.838Z,52.80
2018-02-08T21:44:41.314Z,47.43
2018-02-08T21:54:43.599Z,49.50
2018-02-08T22:04:45.164Z,50.90
2018-02-08T22:14:46.725Z,46.63
2018-02-08T22:24:48.963Z,52.27
2018-02-08T22:34:50.500Z,53.40
2018-02-08T22:44:52.049Z,59.27
2018-02-08T22:54:54.342Z,48.20
2018-02-08T23:04:56.004Z,52.23
2018-02-08T23:14:57.528Z,46.63
2018-02-08T23:24:59.028Z,49.73
2018-02-08T23:35:00.560Z,55.23
2018-02-08T23:45:02.872Z,51.40
2018-02-08T23:55:04.391Z,53.80
